createdAt,value
2023-02-17T00:01:14.249Z,81.99
2023-02-17T00:03:41.672Z,83.26
2023-02-17T00:06:11.239Z,83.99
2023-02-17T00:08:38.669Z,84.13
2023-02-17T00:11:06.616Z,84.24
2023-02-17T00:13:34.501Z,85.26
2023-02-17T00:16:19.171Z,85.61
2023-02-17T00:18:47.931Z,85.51
2023-02-17T00:21:21.804Z,85.03
2023-02-17T00:23:52.316Z,85.03
2023-02-17T00:26:20.884Z,84.51
2023-02-17T00:28:48.983Z,84.18
2023-02-17T00:31:19.284Z,84.36
2023-02-17T00:33:47.270Z,84.60
2023-02-17T00:36:17.929Z,84.69
2023-02-17T00:38:48.110Z,84.80
2023-02-17T00:41:17.346Z,85.43
2023-02-17T00:43:45.945Z,85.67
2023-02-17T00:46:14.080Z,85.62
2023-02-17T00:48:42.197Z,85.67
2023-02-17T00:51:10.356Z,85.11
2023-02-17T00:53:38.024Z,84.88
2023-02-17T00:56:08.463Z,85.07
2023-02-17T00:58:36.769Z,86.84
2023-02-17T01:01:04.757Z,87.55
2023-02-17T01:03:32.387Z,86.78
2023-02-17T01:05:59.731Z,87.76
2023-02-17T01:08:27.122Z,87.28
2023-02-17T01:10:54.493Z,86.69
2023-02-17T01:13:21.904Z,87.16
2023-02-17T01:15:51.978Z,87.64
2023-02-17T01:18:21.911Z,87.16
2023-02-17T01:20:51.078Z,86.93
2023-02-17T01:23:18.767Z,87.85
2023-02-17T01:25:47.736Z,87.13
2023-02-17T01:28:19.904Z,87.90
2023-02-17T01:30:47.816Z,87.95
2023-02-17T01:33:15.454Z,88.35
2023-02-17T01:35:42.890Z,88.69
2023-02-17T01:38:13.029Z,89.52
2023-02-17T01:40:48.031Z,89.88
2023-02-17T01:43:17.659Z,90.08
2023-02-17T01:45:56.465Z,90.42
2023-02-17T01:48:38.536Z,90.67
2023-02-17T01:51:21.483Z,89.96
2023-02-17T01:54:02.165Z,91.46
2023-02-17T01:56:35.513Z,90.78
2023-02-17T01:59:10.502Z,90.71
2023-02-17T02:01:39.411Z,90.23
2023-02-17T02:04:08.134Z,91.00
2023-02-17T02:06:38.536Z,91.28
2023-02-17T02:09:10.987Z,91.73
2023-02-17T02:11:38.445Z,90.10
2023-02-17T02:14:08.602Z,88.86
2023-02-17T02:16:53.326Z,89.25
2023-02-17T02:19:47.179Z,88.70
2023-02-17T02:22:28.535Z,88.65
2023-02-17T02:25:19.919Z,88.09
2023-02-17T02:28:12.433Z,87.69
2023-02-17T02:30:58.829Z,87.23
2023-02-17T02:33:35.321Z,86.30
2023-02-17T02:36:26.305Z,85.92
2023-02-17T02:39:06.537Z,86.99
2023-02-17T02:41:41.782Z,86.81
2023-02-17T02:44:12.694Z,86.24
2023-02-17T02:46:40.074Z,87.10
2023-02-17T02:49:08.640Z,87.71
2023-02-17T02:51:53.696Z,87.51
2023-02-17T02:54:37.868Z,87.63
2023-02-17T02:57:42.210Z,87.75
2023-02-17T03:00:25.753Z,88.14
2023-02-17T03:02:57.336Z,88.10
2023-02-17T03:05:57.400Z,88.72
2023-02-17T03:08:33.406Z,90.43
2023-02-17T03:11:01.661Z,90.88
2023-02-17T03:13:38.023Z,89.31
2023-02-17T03:16:07.768Z,89.55
2023-02-17T03:18:36.267Z,88.66
2023-02-17T03:21:15.534Z,90.68
2023-02-17T03:23:43.562Z,90.60
2023-02-17T03:26:10.990Z,90.88
2023-02-17T03:28:38.337Z,89.76
2023-02-17T03:31:05.795Z,90.33
2023-02-17T03:33:33.259Z,90.77
2023-02-17T03:36:00.623Z,90.37
2023-02-17T03:38:27.994Z,89.99
2023-02-17T03:40:55.444Z,90.73
2023-02-17T03:43:22.813Z,90.58
2023-02-17T03:45:50.173Z,90.91
2023-02-17T03:48:17.549Z,90.80
2023-02-17T03:50:44.920Z,89.96
2023-02-17T03:53:12.451Z,90.43
2023-02-17T03:55:39.806Z,90.35
2023-02-17T03:58:07.162Z,89.45
2023-02-17T04:00:34.583Z,89.17
2023-02-17T04:03:02.174Z,89.53
2023-02-17T04:05:29.557Z,89.38
2023-02-17T04:07:56.913Z,89.08
2023-02-17T04:10:24.288Z,88.06
2023-02-17T04:12:51.667Z,87.94
2023-02-17T04:15:19.082Z,87.69
2023-02-17T04:17:46.458Z,88.20
2023-02-17T04:20:14.221Z,88.21
2023-02-17T04:22:41.771Z,88.80
2023-02-17T04:25:09.189Z,90.47
2023-02-17T04:27:36.563Z,90.25
2023-02-17T04:30:04.897Z,90.28
2023-02-17T04:32:32.277Z,91.03
2023-02-17T04:34:59.664Z,90.92
2023-02-17T04:37:27.084Z,90.98
2023-02-17T04:39:54.444Z,90.88
2023-02-17T04:42:21.780Z,90.23
2023-02-17T04:44:49.866Z,90.42
2023-02-17T04:47:17.276Z,89.86
2023-02-17T04:49:44.652Z,89.92
2023-02-17T04:52:12.072Z,89.52
2023-02-17T04:54:39.405Z,89.89
2023-02-17T04:57:06.772Z,89.47
2023-02-17T04:59:34.178Z,89.06
2023-02-17T05:02:01.659Z,89.00
2023-02-17T05:04:29.309Z,89.08
2023-02-17T05:06:57.136Z,89.11
2023-02-17T05:09:24.523Z,89.56
2023-02-17T05:11:51.972Z,89.73
2023-02-17T05:14:19.424Z,89.76
2023-02-17T05:16:46.828Z,91.01
2023-02-17T05:19:14.182Z,89.86
2023-02-17T05:21:41.531Z,88.62
2023-02-17T05:24:08.895Z,87.52
2023-02-17T05:26:36.327Z,86.98
2023-02-17T05:29:04.201Z,86.46
2023-02-17T05:31:31.835Z,86.15
2023-02-17T05:33:59.193Z,86.76
2023-02-17T05:36:26.585Z,86.60
2023-02-17T05:38:53.944Z,86.12
2023-02-17T05:41:21.713Z,85.42
2023-02-17T05:43:49.067Z,85.35
2023-02-17T05:46:16.497Z,86.29
2023-02-17T05:48:44.346Z,86.38
2023-02-17T05:51:13.894Z,86.57
2023-02-17T05:53:41.321Z,85.94
2023-02-17T05:56:09.123Z,86.53
2023-02-17T05:58:36.648Z,86.43
2023-02-17T06:01:10.284Z,86.42
2023-02-17T06:03:38.621Z,85.92
2023-02-17T06:06:07.419Z,86.09
2023-02-17T06:08:36.148Z,86.17
2023-02-17T06:11:04.438Z,85.81
2023-02-17T06:13:31.844Z,86.39
2023-02-17T06:15:59.623Z,86.05
2023-02-17T06:18:27.148Z,87.00
2023-02-17T06:20:58.173Z,87.14
2023-02-17T06:23:26.768Z,87.81
2023-02-17T06:25:54.763Z,87.41
2023-02-17T06:28:22.165Z,87.51
2023-02-17T06:30:49.616Z,88.04
2023-02-17T06:33:16.968Z,87.46
2023-02-17T06:35:48.962Z,87.18
2023-02-17T06:38:16.394Z,87.23
2023-02-17T06:40:43.830Z,87.24
2023-02-17T06:43:11.349Z,87.85
2023-02-17T06:45:38.838Z,86.84
2023-02-17T06:48:06.299Z,87.79
2023-02-17T06:50:33.681Z,87.39
2023-02-17T06:53:01.048Z,87.59
2023-02-17T06:55:28.436Z,88.63
2023-02-17T06:57:56.825Z,88.80
2023-02-17T07:00:24.341Z,88.38
2023-02-17T07:02:51.750Z,88.89
2023-02-17T07:05:19.320Z,87.89
2023-02-17T07:07:46.672Z,88.41
2023-02-17T07:10:15.233Z,88.54
2023-02-17T07:12:42.543Z,87.83
2023-02-17T07:15:12.283Z,88.11
2023-02-17T07:17:39.893Z,87.15
2023-02-17T07:20:08.132Z,86.73
2023-02-17T07:22:35.451Z,87.43
2023-02-17T07:25:03.039Z,86.43
2023-02-17T07:27:31.716Z,86.90
2023-02-17T07:29:59.091Z,86.37
2023-02-17T07:32:26.512Z,86.03
2023-02-17T07:34:53.939Z,86.02
2023-02-17T07:37:21.906Z,86.17
2023-02-17T07:39:49.322Z,86.49
2023-02-17T07:42:41.803Z,86.57
2023-02-17T07:45:09.356Z,85.92
2023-02-17T07:47:36.657Z,85.55
2023-02-17T07:50:04.177Z,84.82
2023-02-17T07:52:31.657Z,85.59
2023-02-17T07:54:59.000Z,85.39
2023-02-17T07:57:26.501Z,86.27
2023-02-17T07:59:53.897Z,85.65
2023-02-17T08:02:21.953Z,85.80
2023-02-17T08:04:51.912Z,85.89
2023-02-17T08:07:19.437Z,85.37
2023-02-17T08:10:05.326Z,85.39
2023-02-17T08:12:51.238Z,84.76
2023-02-17T08:15:18.804Z,85.67
2023-02-17T08:17:46.252Z,85.22
2023-02-17T08:20:15.680Z,85.09
2023-02-17T08:22:43.051Z,85.10
2023-02-17T08:25:10.527Z,86.20
2023-02-17T08:27:37.870Z,84.47
2023-02-17T08:30:06.114Z,84.93
2023-02-17T08:32:33.716Z,83.79
2023-02-17T08:35:01.830Z,84.43
2023-02-17T08:37:30.865Z,83.33
2023-02-17T08:40:01.587Z,83.11
2023-02-17T08:42:31.676Z,81.84
2023-02-17T08:44:59.066Z,82.02
2023-02-17T08:47:26.430Z,82.33
2023-02-17T08:49:53.867Z,80.43
2023-02-17T08:52:21.314Z,78.65
2023-02-17T08:54:50.932Z,79.49
2023-02-17T08:57:20.523Z,79.15
2023-02-17T08:59:48.344Z,77.64
2023-02-17T09:02:16.855Z,77.01
2023-02-17T09:04:45.064Z,76.90
2023-02-17T09:07:14.307Z,75.67
2023-02-17T09:09:41.953Z,73.07
2023-02-17T09:12:09.431Z,71.92
2023-02-17T09:14:36.806Z,72.57
2023-02-17T09:17:05.231Z,72.75
2023-02-17T09:19:32.612Z,75.95
2023-02-17T09:22:00.000Z,76.95
2023-02-17T09:24:28.717Z,77.77
2023-02-17T09:26:56.070Z,78.96
2023-02-17T09:29:23.484Z,79.71
2023-02-17T09:31:51.040Z,79.43
2023-02-17T09:34:18.600Z,81.09
2023-02-17T09:36:46.238Z,81.21
2023-02-17T09:39:14.930Z,81.03
2023-02-17T09:41:45.710Z,81.14
2023-02-17T09:44:33.963Z,80.78
2023-02-17T09:47:02.652Z,80.24
2023-02-17T09:49:45.080Z,80.80
2023-02-17T09:52:12.478Z,80.71
2023-02-17T09:55:04.477Z,80.16
2023-02-17T09:57:40.198Z,80.53
2023-02-17T10:00:15.775Z,80.54
2023-02-17T10:02:48.434Z,80.15
2023-02-17T10:05:22.217Z,79.43
2023-02-17T10:08:21.830Z,78.64
2023-02-17T10:10:56.456Z,79.13
2023-02-17T10:13:28.076Z,78.99
2023-02-17T10:15:58.586Z,79.08
2023-02-17T10:18:38.564Z,79.72
2023-02-17T10:21:13.268Z,79.27
2023-02-17T10:23:40.922Z,78.50
2023-02-17T10:26:19.636Z,78.76
2023-02-17T10:29:13.795Z,80.29
2023-02-17T10:31:53.120Z,80.38
2023-02-17T10:34:38.379Z,80.32
2023-02-17T10:37:23.474Z,80.04
2023-02-17T10:39:53.586Z,78.92
2023-02-17T10:42:21.233Z,78.73
2023-02-17T10:44:52.620Z,79.51
2023-02-17T10:47:21.447Z,79.67
2023-02-17T10:49:51.971Z,79.71
2023-02-17T10:52:23.210Z,78.94
2023-02-17T10:55:01.138Z,78.48
2023-02-17T10:57:35.796Z,78.27
2023-02-17T11:00:09.299Z,77.65
2023-02-17T11:02:39.472Z,76.46
2023-02-17T11:05:07.984Z,75.53
2023-02-17T11:07:42.350Z,76.15
2023-02-17T11:10:23.851Z,76.99
2023-02-17T11:12:51.963Z,76.90
2023-02-17T11:15:22.548Z,77.32
2023-02-17T11:17:50.955Z,76.54
2023-02-17T11:20:21.040Z,74.78
2023-02-17T11:23:06.193Z,76.46
2023-02-17T11:25:36.479Z,76.19
2023-02-17T11:28:24.008Z,76.48
2023-02-17T11:31:02.664Z,76.84
2023-02-17T11:33:30.106Z,76.96
2023-02-17T11:35:58.063Z,76.33
2023-02-17T11:38:34.615Z,76.73
2023-02-17T11:41:04.741Z,76.74
2023-02-17T11:43:33.163Z,77.01
2023-02-17T11:46:15.793Z,77.35
2023-02-17T11:48:43.110Z,76.42
2023-02-17T11:51:12.892Z,75.70
2023-02-17T11:54:18.377Z,76.63
2023-02-17T11:57:12.735Z,76.61
2023-02-17T12:00:00.898Z,76.46
2023-02-17T12:02:37.400Z,76.65
2023-02-17T12:05:04.721Z,76.71
2023-02-17T12:07:45.598Z,76.55
2023-02-17T12:11:03.370Z,76.52
2023-02-17T12:13:55.591Z,74.29
2023-02-17T12:16:53.770Z,74.45
2023-02-17T12:19:27.177Z,74.78
2023-02-17T12:22:11.711Z,74.39
2023-02-17T12:25:21.291Z,74.29
2023-02-17T12:28:10.831Z,74.27
2023-02-17T12:30:55.137Z,74.84
2023-02-17T12:33:25.611Z,75.39
2023-02-17T12:36:02.165Z,75.13
2023-02-17T12:38:54.060Z,74.90
2023-02-17T12:41:25.703Z,75.54
2023-02-17T12:43:59.851Z,76.03
2023-02-17T12:46:41.254Z,76.06
2023-02-17T12:49:23.549Z,75.24
2023-02-17T12:51:55.994Z,75.27
2023-02-17T12:54:29.960Z,75.38
2023-02-17T12:57:24.610Z,75.05
2023-02-17T12:59:58.666Z,74.64
2023-02-17T13:02:26.591Z,73.40
2023-02-17T13:04:59.969Z,72.93
2023-02-17T13:07:57.586Z,72.32
2023-02-17T13:10:46.514Z,72.63
2023-02-17T13:13:35.075Z,73.18
2023-02-17T13:16:13.913Z,72.81
2023-02-17T13:18:52.278Z,72.24
2023-02-17T13:21:27.507Z,72.07
2023-02-17T13:24:07.829Z,70.92
2023-02-17T13:26:40.326Z,71.68
2023-02-17T13:29:29.425Z,71.05
2023-02-17T13:32:15.267Z,70.16
2023-02-17T13:35:05.810Z,70.29
2023-02-17T13:37:33.162Z,69.77
2023-02-17T13:40:45.809Z,69.69
2023-02-17T13:43:18.094Z,68.75
2023-02-17T13:46:06.177Z,68.16
2023-02-17T13:48:40.539Z,68.53
2023-02-17T13:51:25.631Z,68.21
2023-02-17T13:53:53.356Z,67.00
2023-02-17T13:56:26.212Z,67.35
2023-02-17T13:58:54.143Z,67.03
2023-02-17T14:01:29.176Z,66.52
2023-02-17T14:04:04.745Z,66.60
2023-02-17T14:06:38.867Z,66.23
2023-02-17T14:09:30.781Z,66.38
2023-02-17T14:12:17.218Z,64.23
2023-02-17T14:14:52.259Z,63.91
2023-02-17T14:17:46.112Z,62.95
2023-02-17T14:20:33.126Z,62.95
2023-02-17T14:23:06.583Z,63.40
2023-02-17T14:25:37.338Z,62.73
2023-02-17T14:28:17.610Z,62.35
2023-02-17T14:30:45.161Z,62.82
2023-02-17T14:33:16.342Z,63.55
2023-02-17T14:36:11.557Z,63.65
2023-02-17T14:38:42.543Z,64.49
2023-02-17T14:41:10.335Z,64.69
2023-02-17T14:43:37.865Z,64.21
2023-02-17T14:46:05.706Z,64.22
2023-02-17T14:48:33.310Z,64.58
2023-02-17T14:51:00.754Z,64.33
2023-02-17T14:53:31.450Z,64.65
2023-02-17T14:56:15.676Z,65.34
2023-02-17T14:58:43.218Z,64.66
2023-02-17T15:01:15.946Z,64.56
2023-02-17T15:03:43.903Z,64.94
2023-02-17T15:06:41.832Z,63.88
2023-02-17T15:09:14.150Z,64.85
2023-02-17T15:11:45.649Z,64.80
2023-02-17T15:14:15.109Z,64.08
2023-02-17T15:16:42.929Z,64.21
2023-02-17T15:19:11.568Z,64.85
2023-02-17T15:21:43.206Z,64.45
2023-02-17T15:24:31.149Z,64.81
2023-02-17T15:27:01.663Z,64.55
2023-02-17T15:29:29.777Z,64.01
2023-02-17T15:32:01.596Z,64.49
2023-02-17T15:34:33.590Z,64.77
2023-02-17T15:37:02.037Z,64.88
2023-02-17T15:39:29.577Z,65.60
2023-02-17T15:42:04.615Z,65.80
2023-02-17T15:44:47.592Z,65.73
2023-02-17T15:47:19.081Z,65.76
2023-02-17T15:49:46.913Z,65.34
2023-02-17T15:52:14.913Z,65.87
2023-02-17T15:54:43.743Z,67.04
2023-02-17T15:57:21.094Z,67.31
2023-02-17T15:59:49.141Z,67.00
2023-02-17T16:02:21.161Z,67.29
2023-02-17T16:04:48.935Z,67.52
2023-02-17T16:07:16.331Z,67.92
2023-02-17T16:09:43.751Z,68.23
2023-02-17T16:12:26.635Z,68.64
2023-02-17T16:14:55.368Z,69.05
2023-02-17T16:17:23.137Z,69.39
2023-02-17T16:19:50.701Z,69.77
2023-02-17T16:22:18.188Z,69.90
2023-02-17T16:24:45.674Z,70.18
2023-02-17T16:27:16.343Z,70.57
2023-02-17T16:29:43.874Z,70.92
2023-02-17T16:32:12.994Z,71.64
2023-02-17T16:34:40.767Z,71.62
2023-02-17T16:37:17.311Z,71.89
2023-02-17T16:39:44.798Z,72.27
2023-02-17T16:42:14.887Z,72.15
2023-02-17T16:44:42.699Z,72.50
2023-02-17T16:47:19.921Z,72.27
2023-02-17T16:49:47.993Z,72.51
2023-02-17T16:52:33.161Z,72.89
2023-02-17T16:55:00.641Z,73.14
2023-02-17T16:57:28.006Z,73.30
2023-02-17T16:59:56.048Z,74.20
2023-02-17T17:02:23.686Z,74.34
2023-02-17T17:04:51.059Z,74.15
2023-02-17T17:07:18.649Z,74.66
2023-02-17T17:10:06.798Z,74.98
2023-02-17T17:12:33.615Z,75.32
2023-02-17T17:15:01.003Z,75.27
2023-02-17T17:17:29.752Z,75.53
2023-02-17T17:19:57.239Z,75.27
2023-02-17T17:22:24.598Z,75.25
2023-02-17T17:24:51.981Z,75.30
2023-02-17T17:27:19.408Z,75.68
2023-02-17T17:29:54.388Z,75.92
2023-02-17T17:32:24.875Z,76.02
2023-02-17T17:35:01.109Z,76.91
2023-02-17T17:37:28.657Z,77.36
2023-02-17T17:39:57.637Z,77.65
2023-02-17T17:42:30.774Z,77.84
2023-02-17T17:44:59.603Z,78.45
2023-02-17T17:47:30.250Z,78.33
2023-02-17T17:49:58.863Z,78.50
2023-02-17T17:52:29.185Z,79.11
2023-02-17T17:54:56.866Z,79.26
2023-02-17T17:57:24.298Z,79.31
2023-02-17T17:59:54.416Z,78.50
2023-02-17T18:02:22.882Z,78.25
2023-02-17T18:04:55.113Z,78.15
2023-02-17T18:07:37.316Z,78.21
2023-02-17T18:10:13.229Z,77.60
2023-02-17T18:12:50.974Z,77.65
2023-02-17T18:15:21.832Z,77.87
2023-02-17T18:17:51.201Z,78.79
2023-02-17T18:20:21.181Z,79.08
2023-02-17T18:23:14.918Z,79.40
2023-02-17T18:25:42.451Z,79.19
2023-02-17T18:28:11.703Z,79.30
2023-02-17T18:30:39.290Z,78.92
2023-02-17T18:33:06.727Z,79.06
2023-02-17T18:35:36.006Z,79.37
2023-02-17T18:38:03.544Z,78.91
2023-02-17T18:40:31.397Z,78.81
2023-02-17T18:42:59.459Z,79.19
2023-02-17T18:45:26.952Z,79.62
2023-02-17T18:47:54.349Z,79.71
2023-02-17T18:50:21.992Z,79.52
2023-02-17T18:52:49.259Z,79.95
2023-02-17T18:55:16.520Z,79.62
2023-02-17T18:57:44.882Z,80.04
2023-02-17T19:00:15.539Z,79.77
2023-02-17T19:02:43.133Z,79.84
2023-02-17T19:05:11.452Z,79.68
2023-02-17T19:07:38.862Z,79.54
2023-02-17T19:10:06.745Z,79.96
2023-02-17T19:12:34.381Z,80.17
2023-02-17T19:15:20.965Z,81.22
2023-02-17T19:17:48.813Z,81.54
2023-02-17T19:20:17.184Z,81.09
2023-02-17T19:22:44.506Z,80.98
2023-02-17T19:25:11.811Z,80.84
2023-02-17T19:27:41.945Z,81.22
2023-02-17T19:30:10.700Z,81.45
2023-02-17T19:32:38.325Z,81.88
2023-02-17T19:35:05.973Z,82.04
2023-02-17T19:37:34.849Z,82.07
2023-02-17T19:40:02.137Z,82.46
2023-02-17T19:42:30.383Z,82.85
2023-02-17T19:44:57.732Z,83.21
2023-02-17T19:47:25.133Z,83.30
2023-02-17T19:49:52.543Z,83.36
2023-02-17T19:52:21.118Z,83.42
2023-02-17T19:54:50.496Z,83.75
2023-02-17T19:57:18.452Z,84.18
2023-02-17T19:59:45.904Z,84.43
2023-02-17T20:02:14.807Z,84.49
2023-02-17T20:04:43.013Z,84.62
2023-02-17T20:07:10.463Z,84.78
2023-02-17T20:09:37.929Z,85.10
2023-02-17T20:12:05.630Z,84.86
2023-02-17T20:14:32.986Z,85.80
2023-02-17T20:17:00.936Z,85.27
2023-02-17T20:19:28.735Z,85.51
2023-02-17T20:21:56.142Z,85.46
2023-02-17T20:24:23.551Z,85.35
2023-02-17T20:26:52.053Z,86.68
2023-02-17T20:29:19.510Z,87.02
2023-02-17T20:31:47.174Z,87.16
2023-02-17T20:34:33.747Z,86.68
2023-02-17T20:37:01.818Z,86.29
2023-02-17T20:39:29.338Z,87.07
2023-02-17T20:41:56.991Z,87.05
2023-02-17T20:44:27.684Z,87.16
2023-02-17T20:46:57.041Z,86.84
2023-02-17T20:49:25.532Z,87.35
2023-02-17T20:51:53.651Z,87.21
2023-02-17T20:54:21.169Z,87.36
2023-02-17T20:56:48.825Z,87.70
2023-02-17T20:59:16.340Z,87.89
2023-02-17T21:01:43.874Z,88.14
2023-02-17T21:04:14.010Z,88.11
2023-02-17T21:06:43.004Z,88.33
2023-02-17T21:09:16.430Z,87.82
2023-02-17T21:11:45.544Z,88.19
2023-02-17T21:14:13.457Z,89.60
2023-02-17T21:16:40.961Z,90.14
2023-02-17T21:19:08.910Z,90.10
2023-02-17T21:21:36.353Z,90.85
2023-02-17T21:24:04.269Z,91.09
2023-02-17T21:26:33.325Z,89.78
2023-02-17T21:29:00.676Z,91.38
2023-02-17T21:31:31.588Z,90.59
2023-02-17T21:33:59.424Z,90.17
2023-02-17T21:36:29.059Z,90.72
2023-02-17T21:38:57.800Z,90.76
2023-02-17T21:41:27.718Z,90.53
2023-02-17T21:44:13.780Z,90.57
2023-02-17T21:46:43.028Z,90.75
2023-02-17T21:49:11.219Z,91.25
2023-02-17T21:51:39.602Z,91.40
2023-02-17T21:54:08.059Z,91.37
2023-02-17T21:56:36.376Z,90.90
2023-02-17T21:59:04.687Z,90.46
2023-02-17T22:01:32.179Z,90.25
2023-02-17T22:03:59.920Z,91.35
2023-02-17T22:06:29.989Z,91.32
2023-02-17T22:08:58.377Z,91.80
2023-02-17T22:11:31.476Z,91.57
2023-02-17T22:14:04.133Z,90.87
2023-02-17T22:16:34.069Z,89.63
2023-02-17T22:19:02.855Z,90.46
2023-02-17T22:21:30.361Z,90.79
2023-02-17T22:23:58.875Z,90.79
2023-02-17T22:26:27.539Z,89.89
2023-02-17T22:28:55.667Z,90.61
2023-02-17T22:31:26.711Z,91.09
2023-02-17T22:33:56.845Z,90.83
2023-02-17T22:36:25.190Z,91.44
2023-02-17T22:38:53.944Z,91.77
2023-02-17T22:41:23.879Z,91.68
2023-02-17T22:43:51.680Z,91.24
2023-02-17T22:46:21.828Z,91.24
2023-02-17T22:48:50.807Z,91.69
2023-02-17T22:51:24.339Z,92.08
2023-02-17T22:53:51.991Z,92.94
2023-02-17T22:56:20.662Z,92.87
2023-02-17T22:58:50.500Z,92.84
2023-02-17T23:01:20.824Z,92.81
2023-02-17T23:03:53.911Z,93.40
2023-02-17T23:06:28.290Z,93.58
2023-02-17T23:08:56.312Z,93.34
2023-02-17T23:11:46.268Z,93.47
2023-02-17T23:14:14.240Z,92.65
2023-02-17T23:16:42.560Z,92.57
2023-02-17T23:19:12.956Z,93.17
2023-02-17T23:21:48.449Z,93.15
2023-02-17T23:24:17.479Z,93.48
2023-02-17T23:26:45.478Z,94.80
2023-02-17T23:29:14.070Z,94.51
2023-02-17T23:31:41.444Z,93.97
2023-02-17T23:34:09.038Z,93.29
2023-02-17T23:36:39.210Z,93.34
2023-02-17T23:39:07.211Z,93.38
2023-02-17T23:41:36.051Z,94.02
2023-02-17T23:44:04.527Z,93.67
2023-02-17T23:46:32.118Z,93.66
2023-02-17T23:48:59.539Z,93.37
2023-02-17T23:51:26.886Z,93.39
2023-02-17T23:53:54.319Z,93.09
2023-02-17T23:56:32.485Z,92.47
2023-02-17T23:59:00.483Z,92.06
